Time;durP1;ratioP1;P1;durP2;ratioP2;P2;SDS_P1;SDS_P2;PMS_P1;PMS_P2;Temp;Humidity;BMP_temperature;BMP_pressure;BME280_temperature;BME280_humidity;BME280_pressure;Samples;Min_cycle;Max_cycle;Signal;HPM_P1;HPM_P2
2023/06/22 00:00:39;;;;;;;;;;;;;;;25.34;63.42;99782.44;4476069;32;34058;-78
2023/06/22 00:03:08;;;;;;;;;;;;;;;25.03;63.54;99810.31;4476679;32;33972;-79
2023/06/22 00:05:38;;;;;;;;;;;;;;;25.64;61.60;99813.03;4475454;32;34142;-80
2023/06/22 00:08:10;;;;;;;;;;;;;;;25.73;62.47;99815.88;4479459;32;34084;-79
2023/06/22 00:10:39;;;;;;;;;;;;;;;25.81;62.13;99817.09;4481722;32;34241;-77
2023/06/22 00:13:08;;;;;;;;;;;;;;;25.71;62.84;99823.09;4476815;32;34906;-78
2023/06/22 00:15:36;;;;;;;;;;;;;;;25.73;63.17;99828.28;4476677;32;34741;-78
2023/06/22 00:18:05;;;;;;;;;;;;;;;25.69;63.54;99816.19;4476627;32;33606;-78
2023/06/22 00:20:36;;;;;;;;;;;;;;;25.69;63.96;99809.06;4482057;32;33605;-78
2023/06/22 00:23:08;;;;;;;;;;;;;;;25.57;64.39;99798.50;4476681;32;33884;-77
2023/06/22 00:25:37;;;;;;;;;;;;;;;25.60;64.69;99807.09;4476525;32;34421;-78
2023/06/22 00:28:07;;;;;;;;;;;;;;;25.79;62.66;99806.56;4476398;32;34019;-79
2023/06/22 00:30:36;;;;;;;;;;;;;;;25.47;63.67;99803.66;4481833;32;35729;-78
2023/06/22 00:33:07;;;;;;;;;;;;;;;25.44;64.46;99804.72;4465975;32;35002;-79
2023/06/22 00:35:36;;;;;;;;;;;;;;;25.48;63.62;99822.12;4476213;32;33559;-79
2023/06/22 00:38:05;;;;;;;;;;;;;;;25.30;64.14;99820.81;4476101;32;33532;-78
2023/06/22 00:40:34;;;;;;;;;;;;;;;25.36;63.56;99817.69;4476561;32;34142;-78
2023/06/22 00:43:04;;;;;;;;;;;;;;;25.37;63.50;99808.78;4481963;32;33610;-77
2023/06/22 00:45:32;;;;;;;;;;;;;;;25.39;64.27;99800.69;4476093;32;34075;-78
2023/06/22 00:48:01;;;;;;;;;;;;;;;25.49;63.13;99818.53;4476256;32;34644;-77
2023/06/22 00:50:33;;;;;;;;;;;;;;;25.44;63.65;99817.13;4475974;32;35185;-79
2023/06/22 00:53:07;;;;;;;;;;;;;;;25.40;63.55;99807.72;4481479;32;34044;-80
2023/06/22 00:55:43;;;;;;;;;;;;;;;25.50;63.78;99808.75;4481715;32;32503;-78
2023/06/22 00:58:13;;;;;;;;;;;;;;;25.49;64.18;99815.00;4475794;32;34727;-80
2023/06/22 01:00:43;;;;;;;;;;;;;;;25.38;64.45;99814.94;4475542;32;34830;-78
2023/06/22 01:03:11;;;;;;;;;;;;;;;25.44;63.76;99810.03;4475766;32;33903;-80
2023/06/22 01:05:40;;;;;;;;;;;;;;;25.44;63.71;99812.69;4479062;32;34529;-78
2023/06/22 01:08:13;;;;;;;;;;;;;;;25.37;64.52;99814.09;4465953;32;33539;-78
2023/06/22 01:10:44;;;;;;;;;;;;;;;25.38;64.62;99813.13;4475867;32;34409;-78
2023/06/22 01:13:17;;;;;;;;;;;;;;;25.42;63.74;99804.00;4471597;32;34603;-80
2023/06/22 01:15:49;;;;;;;;;;;;;;;25.38;63.88;99799.00;4460164;32;33413;-80
2023/06/22 01:18:18;;;;;;;;;;;;;;;25.24;64.41;99800.84;4465854;32;33894;-79
2023/06/22 01:20:47;;;;;;;;;;;;;;;25.39;63.35;99795.37;4461546;32;33865;-80
2023/06/22 01:23:19;;;;;;;;;;;;;;;25.15;64.19;99793.50;4462774;32;35866;-78
2023/06/22 01:25:58;;;;;;;;;;;;;;;25.22;63.51;99788.66;4462249;32;32491;-80
2023/06/22 01:28:43;;;;;;;;;;;;;;;25.23;63.02;99795.66;4467803;32;34005;-78
2023/06/22 01:31:14;;;;;;;;;;;;;;;25.09;63.37;99791.31;4467732;32;33918;-78
2023/06/22 01:33:44;;;;;;;;;;;;;;;25.01;63.47;99789.22;4462309;32;34912;-78
2023/06/22 01:36:14;;;;;;;;;;;;;;;24.90;63.51;99794.44;4462173;32;33635;-79
2023/06/22 01:38:43;;;;;;;;;;;;;;;25.00;63.40;99789.31;4462088;32;34892;-78
2023/06/22 01:41:13;;;;;;;;;;;;;;;25.18;62.39;99784.50;4467780;32;36055;-80
2023/06/22 01:43:43;;;;;;;;;;;;;;;25.17;62.53;99786.31;4462125;32;34142;-80
2023/06/22 01:46:11;;;;;;;;;;;;;;;25.07;63.12;99782.63;4462304;32;33773;-78
2023/06/22 01:48:40;;;;;;;;;;;;;;;24.96;63.74;99779.87;4462276;32;34056;-79
2023/06/22 01:51:09;;;;;;;;;;;;;;;25.00;63.54;99784.00;4461769;32;34739;-78
2023/06/22 01:53:37;;;;;;;;;;;;;;;25.17;62.96;99783.66;4467724;32;34494;-78
2023/06/22 01:56:06;;;;;;;;;;;;;;;25.00;63.06;99794.63;4462074;32;33277;-77
2023/06/22 01:58:35;;;;;;;;;;;;;;;24.93;63.67;99788.91;4462244;32;34516;-79
2023/06/22 02:01:08;;;;;;;;;;;;;;;24.92;63.32;99789.88;4461946;32;34313;-79
2023/06/22 02:03:37;;;;;;;;;;;;;;;25.04;62.58;99796.94;4467685;32;33898;-79
2023/06/22 02:06:08;;;;;;;;;;;;;;;24.88;63.63;99791.88;4447422;32;32125;-79
2023/06/22 02:08:38;;;;;;;;;;;;;;;24.84;64.10;99790.41;4462190;32;33304;-79
2023/06/22 02:11:09;;;;;;;;;;;;;;;24.74;64.86;99799.97;4461813;32;34475;-78
2023/06/22 02:13:37;;;;;;;;;;;;;;;24.81;64.67;99800.38;4462310;32;34601;-78
2023/06/22 02:16:07;;;;;;;;;;;;;;;24.58;65.83;99794.91;4467453;32;32961;-78
2023/06/22 02:18:36;;;;;;;;;;;;;;;24.87;65.02;99794.66;4462071;32;33736;-78
2023/06/22 02:21:07;;;;;;;;;;;;;;;24.84;64.91;99795.72;4463536;32;33638;-78
2023/06/22 02:23:37;;;;;;;;;;;;;;;24.68;65.05;99801.25;4461931;32;34528;-79
2023/06/22 02:26:05;;;;;;;;;;;;;;;24.25;66.03;99803.34;4467424;32;33655;-79
2023/06/22 02:28:34;;;;;;;;;;;;;;;24.10;66.82;99810.53;4461733;32;33635;-77
2023/06/22 02:31:03;;;;;;;;;;;;;;;23.78;67.85;99805.59;4461448;32;34993;-79
2023/06/22 02:33:33;;;;;;;;;;;;;;;24.14;66.85;99814.69;4461944;32;34148;-77
2023/06/22 02:36:04;;;;;;;;;;;;;;;24.21;66.42;99823.06;4463835;32;35665;-79
2023/06/22 02:38:34;;;;;;;;;;;;;;;23.97;67.12;99814.94;4465974;32;34834;-78
2023/06/22 02:41:03;;;;;;;;;;;;;;;24.07;66.02;99821.34;4477119;32;34202;-78
2023/06/22 02:43:31;;;;;;;;;;;;;;;24.11;66.20;99820.16;4477028;32;34832;-78
2023/06/22 02:46:00;;;;;;;;;;;;;;;24.17;65.60;99827.72;4477638;32;34460;-80
2023/06/22 02:48:29;;;;;;;;;;;;;;;24.00;66.29;99825.37;4482878;32;33559;-78
2023/06/22 02:50:59;;;;;;;;;;;;;;;24.05;65.90;99831.19;4480071;32;34199;-78
2023/06/22 02:53:28;;;;;;;;;;;;;;;24.19;65.68;99833.78;4477636;32;33377;-79
2023/06/22 02:55:56;;;;;;;;;;;;;;;24.20;65.68;99837.28;4477148;32;33372;-79
2023/06/22 02:58:25;;;;;;;;;;;;;;;24.11;65.94;99835.22;4483124;32;34249;-78
2023/06/22 03:00:54;;;;;;;;;;;;;;;24.00;66.69;99828.84;4477471;32;35150;-77
2023/06/22 03:03:26;;;;;;;;;;;;;;;24.14;66.11;99829.72;4477107;32;34708;-78
2023/06/22 03:05:55;;;;;;;;;;;;;;;24.11;65.89;99824.63;4476910;32;33022;-77
2023/06/22 03:08:25;;;;;;;;;;;;;;;24.04;66.13;99816.22;4476960;32;34500;-80
2023/06/22 03:10:54;;;;;;;;;;;;;;;24.04;66.23;99816.22;4468581;32;33532;-78
2023/06/22 03:13:23;;;;;;;;;;;;;;;23.91;66.74;99820.66;4477296;32;33982;-79
2023/06/22 03:15:52;;;;;;;;;;;;;;;24.01;66.52;99827.06;4477262;32;33732;-78
2023/06/22 03:18:22;;;;;;;;;;;;;;;23.82;66.94;99828.28;4479169;32;34866;-78
2023/06/22 03:20:51;;;;;;;;;;;;;;;24.13;66.15;99823.56;4468764;32;34148;-79
2023/06/22 03:23:19;;;;;;;;;;;;;;;24.15;66.33;99824.31;4461620;32;34265;-79
2023/06/22 03:25:50;;;;;;;;;;;;;;;24.10;66.31;99826.44;4461176;32;33672;-78
2023/06/22 03:28:18;;;;;;;;;;;;;;;24.21;66.05;99818.63;4461077;32;33839;-77
2023/06/22 03:30:47;;;;;;;;;;;;;;;24.20;66.04;99816.91;4461693;32;33902;-79
2023/06/22 03:33:17;;;;;;;;;;;;;;;24.25;66.13;99814.78;4466765;32;33965;-79
2023/06/22 03:35:46;;;;;;;;;;;;;;;24.30;65.60;99814.47;4461360;32;33364;-78
2023/06/22 03:38:14;;;;;;;;;;;;;;;24.24;66.10;99812.25;4461527;32;33942;-79
2023/06/22 03:40:43;;;;;;;;;;;;;;;24.44;65.26;99818.84;4461380;32;34008;-79
2023/06/22 03:43:13;;;;;;;;;;;;;;;24.45;65.36;99824.06;4466566;32;34048;-78
2023/06/22 03:45:45;;;;;;;;;;;;;;;24.49;64.86;99822.91;4461609;32;34076;-78
2023/06/22 03:48:13;;;;;;;;;;;;;;;24.41;65.54;99814.59;4462146;32;34720;-80
2023/06/22 03:50:43;;;;;;;;;;;;;;;24.43;65.37;99827.75;4461380;32;35156;-78
2023/06/22 03:53:13;;;;;;;;;;;;;;;24.43;65.52;99814.50;4462843;32;33910;-79
2023/06/22 03:55:43;;;;;;;;;;;;;;;24.56;64.66;99807.41;4466921;32;33175;-78
2023/06/22 03:58:13;;;;;;;;;;;;;;;24.48;64.91;99815.06;4461023;32;34877;-78
2023/06/22 04:00:42;;;;;;;;;;;;;;;24.42;65.43;99813.62;4461534;32;33179;-80
2023/06/22 04:03:11;;;;;;;;;;;;;;;24.68;64.80;99817.16;4461479;32;34299;-80
2023/06/22 04:05:40;;;;;;;;;;;;;;;24.65;65.04;99822.69;4466829;32;33381;-78
2023/06/22 04:08:09;;;;;;;;;;;;;;;24.84;63.76;99821.38;4459850;32;34026;-78
2023/06/22 04:10:37;;;;;;;;;;;;;;;24.84;63.86;99822.25;4464618;32;33740;-79
2023/06/22 04:13:06;;;;;;;;;;;;;;;24.87;63.45;99826.50;4476385;32;34542;-79
2023/06/22 04:15:36;;;;;;;;;;;;;;;25.06;63.41;99831.38;4482209;32;34146;-80
2023/06/22 04:18:05;;;;;;;;;;;;;;;25.08;63.51;99824.97;4476886;32;34924;-78
2023/06/22 04:20:34;;;;;;;;;;;;;;;25.42;62.72;99817.28;4476659;32;34215;-78
2023/06/22 04:23:03;;;;;;;;;;;;;;;25.58;61.74;99822.28;4476389;32;33869;-79
2023/06/22 04:25:32;;;;;;;;;;;;;;;25.75;59.93;99815.72;4476358;32;34406;-80
2023/06/22 04:28:03;;;;;;;;;;;;;;;25.70;60.97;99817.87;4482262;32;34485;-79
2023/06/22 04:30:33;;;;;;;;;;;;;;;25.73;60.63;99815.88;4476092;32;34667;-78
2023/06/22 04:33:03;;;;;;;;;;;;;;;26.20;59.68;99821.25;4476445;32;34676;-78
2023/06/22 04:35:32;;;;;;;;;;;;;;;26.32;59.17;99820.31;4476578;32;33975;-78
2023/06/22 04:38:01;;;;;;;;;;;;;;;26.60;57.98;99829.72;4444186;32;1195384;-78
2023/06/22 04:40:29;;;;;;;;;;;;;;;26.98;56.01;99840.97;4476629;32;34750;-78
2023/06/22 04:43:02;;;;;;;;;;;;;;;27.11;54.96;99841.69;4476379;32;34217;-78
2023/06/22 04:45:31;;;;;;;;;;;;;;;26.55;56.95;99844.31;4476530;32;33148;-79
2023/06/22 04:48:00;;;;;;;;;;;;;;;27.33;53.97;99856.81;4476196;32;36361;-79
2023/06/22 04:50:30;;;;;;;;;;;;;;;27.19;54.30;99860.59;4481715;32;34910;-80
2023/06/22 04:52:59;;;;;;;;;;;;;;;27.02;54.64;99858.41;4475856;32;34968;-78
2023/06/22 04:55:28;;;;;;;;;;;;;;;27.45;53.09;99855.00;4477300;32;33387;-79
2023/06/22 04:58:04;;;;;;;;;;;;;;;27.17;53.36;99859.81;4477954;32;34952;-78
2023/06/22 05:00:36;;;;;;;;;;;;;;;27.22;53.73;99860.34;4482168;32;34214;-79
2023/06/22 05:03:06;;;;;;;;;;;;;;;27.51;53.77;99853.63;4478390;32;35060;-80
2023/06/22 05:05:49;;;;;;;;;;;;;;;27.70;52.86;99859.16;4476326;32;33305;-80
2023/06/22 05:08:20;;;;;;;;;;;;;;;27.84;52.35;99858.91;4477620;32;34727;-80
2023/06/22 05:10:49;;;;;;;;;;;;;;;27.98;52.93;99867.56;4476826;32;34173;-81
2023/06/22 05:13:31;;;;;;;;;;;;;;;28.16;52.20;99871.37;4483766;32;34100;-78
2023/06/22 05:16:02;;;;;;;;;;;;;;;28.22;51.64;99876.22;4480800;32;33934;-79
2023/06/22 05:18:31;;;;;;;;;;;;;;;28.15;52.21;99880.34;4477869;32;34152;-80
2023/06/22 05:21:03;;;;;;;;;;;;;;;27.97;53.41;99884.53;4477940;32;34020;-78
2023/06/22 05:23:31;;;;;;;;;;;;;;;28.44;51.46;99883.25;4478179;32;33501;-79
2023/06/22 05:26:00;;;;;;;;;;;;;;;28.53;51.35;99886.97;4483539;32;33283;-79
2023/06/22 05:28:29;;;;;;;;;;;;;;;28.74;50.84;99892.28;4477730;32;34139;-78
2023/06/22 05:30:57;;;;;;;;;;;;;;;28.48;51.83;99887.34;4479159;32;34847;-79
2023/06/22 05:33:26;;;;;;;;;;;;;;;28.47;52.47;99885.66;4477683;32;34388;-80
2023/06/22 05:35:55;;;;;;;;;;;;;;;28.62;52.71;99888.00;4483549;32;34842;-79
2023/06/22 05:38:25;;;;;;;;;;;;;;;28.78;51.77;99892.88;4478125;32;34219;-78
2023/06/22 05:40:54;;;;;;;;;;;;;;;29.15;50.66;99903.91;4465328;32;31760;-79
2023/06/22 05:43:23;;;;;;;;;;;;;;;29.35;48.95;99905.66;4478004;32;34098;-79
2023/06/22 05:45:52;;;;;;;;;;;;;;;29.66;47.65;99902.97;4461959;32;33811;-78
2023/06/22 05:48:21;;;;;;;;;;;;;;;29.84;48.06;99900.47;4470197;32;34645;-80
2023/06/22 05:50:51;;;;;;;;;;;;;;;29.85;45.48;99902.16;4461874;32;35063;-79
2023/06/22 05:53:21;;;;;;;;;;;;;;;29.83;46.67;99903.28;4461891;32;33991;-80
2023/06/22 05:55:51;;;;;;;;;;;;;;;29.80;46.70;99907.09;4461663;32;34092;-80
2023/06/22 05:58:19;;;;;;;;;;;;;;;29.75;46.59;99907.50;4467591;32;35911;-80
2023/06/22 06:00:48;;;;;;;;;;;;;;;29.52;46.94;99906.00;4464630;32;33968;-79
2023/06/22 06:03:17;;;;;;;;;;;;;;;29.07;47.61;99901.91;4461764;32;35264;-79
2023/06/22 06:05:46;;;;;;;;;;;;;;;28.79;48.10;99900.75;4462593;32;33963;-79
2023/06/22 06:08:15;;;;;;;;;;;;;;;28.60;49.84;99900.63;4462859;32;34409;-80
2023/06/22 06:10:44;;;;;;;;;;;;;;;28.38;51.14;99902.41;4467012;32;33691;-79
2023/06/22 06:13:14;;;;;;;;;;;;;;;28.44;50.90;99907.25;4461576;32;33575;-80
2023/06/22 06:15:43;;;;;;;;;;;;;;;28.29;51.12;99905.84;4461644;32;33266;-78
2023/06/22 06:18:12;;;;;;;;;;;;;;;28.40;49.19;99896.97;4462275;32;34128;-79
2023/06/22 06:20:42;;;;;;;;;;;;;;;28.02;50.09;99909.00;4471482;32;34048;-80
2023/06/22 06:23:11;;;;;;;;;;;;;;;27.60;51.26;99903.53;4461993;32;34397;-80
2023/06/22 06:25:40;;;;;;;;;;;;;;;27.75;51.12;99899.59;4461546;32;33287;-78
2023/06/22 06:28:08;;;;;;;;;;;;;;;27.75;50.88;99904.94;4464707;32;34000;-80
2023/06/22 06:30:38;;;;;;;;;;;;;;;27.93;50.84;99899.94;4481240;32;33887;-78
2023/06/22 06:33:08;;;;;;;;;;;;;;;28.17;50.80;99899.72;4477895;32;33470;-80
2023/06/22 06:35:37;;;;;;;;;;;;;;;28.03;50.15;99900.06;4477255;32;32736;-80
2023/06/22 06:38:06;;;;;;;;;;;;;;;28.16;49.79;99898.03;4477455;32;33876;-79
2023/06/22 06:40:35;;;;;;;;;;;;;;;28.40;48.75;99892.47;4477219;32;33918;-80
2023/06/22 06:43:03;;;;;;;;;;;;;;;28.35;48.64;99885.84;4483079;32;34291;-79
2023/06/22 06:45:34;;;;;;;;;;;;;;;28.52;49.11;99887.94;4477731;32;33337;-79
2023/06/22 06:48:05;;;;;;;;;;;;;;;28.63;48.88;99889.69;4477455;32;33942;-79
2023/06/22 06:50:34;;;;;;;;;;;;;;;28.49;48.25;99894.41;4477233;32;34181;-79
2023/06/22 06:53:02;;;;;;;;;;;;;;;28.42;49.15;99887.84;4483069;32;34198;-81
2023/06/22 06:55:32;;;;;;;;;;;;;;;28.69;47.83;99881.16;4476751;32;33611;-80
2023/06/22 06:58:01;;;;;;;;;;;;;;;28.28;48.66;99885.50;4479516;32;36100;-79
2023/06/22 07:00:30;;;;;;;;;;;;;;;28.80;46.88;99880.22;4477148;32;33956;-80
2023/06/22 07:02:59;;;;;;;;;;;;;;;28.42;47.99;99881.69;4476118;32;34410;-79
2023/06/22 07:05:29;;;;;;;;;;;;;;;28.92;47.27;99877.38;4482672;32;33519;-80
2023/06/22 07:07:58;;;;;;;;;;;;;;;29.13;47.51;99877.31;4467800;32;34174;-80
2023/06/22 07:10:26;;;;;;;;;;;;;;;28.89;47.49;99879.44;4461381;32;34555;-80
2023/06/22 07:12:56;;;;;;;;;;;;;;;29.05;46.97;99876.28;4461439;32;34353;-79
2023/06/22 07:15:25;;;;;;;;;;;;;;;28.99;49.02;99879.47;4466802;32;33220;-78
2023/06/22 07:17:55;;;;;;;;;;;;;;;29.41;45.59;99882.06;4461096;32;33912;-80
2023/06/22 07:20:23;;;;;;;;;;;;;;;29.53;44.59;99879.16;4461271;32;33869;-80
2023/06/22 07:22:55;;;;;;;;;;;;;;;29.55;45.54;99876.31;4461348;32;34916;-80
2023/06/22 07:25:26;;;;;;;;;;;;;;;29.63;45.55;99875.66;4468317;32;33141;-79
2023/06/22 07:27:59;;;;;;;;;;;;;;;30.07;43.37;99882.31;4482135;32;34578;-79
2023/06/22 07:30:28;;;;;;;;;;;;;;;29.43;44.80;99878.28;4476829;32;34224;-80
2023/06/22 07:32:57;;;;;;;;;;;;;;;29.56;44.54;99878.03;4476999;32;34939;-79
2023/06/22 07:35:26;;;;;;;;;;;;;;;30.08;43.26;99878.66;4477308;32;33429;-80
2023/06/22 07:37:56;;;;;;;;;;;;;;;29.98;43.68;99877.81;4482963;32;33913;-79
2023/06/22 07:40:25;;;;;;;;;;;;;;;30.29;42.76;99873.19;4476788;32;33705;-78
2023/06/22 07:42:53;;;;;;;;;;;;;;;30.44;42.77;99867.38;4476955;32;34769;-81
2023/06/22 07:45:22;;;;;;;;;;;;;;;30.28;41.94;99865.31;4476717;32;33447;-79
2023/06/22 07:47:51;;;;;;;;;;;;;;;29.97;42.48;99876.97;4482503;32;33556;-79
2023/06/22 07:50:20;;;;;;;;;;;;;;;30.08;43.41;99869.78;4479540;32;35123;-80
2023/06/22 07:52:49;;;;;;;;;;;;;;;30.30;45.04;99866.84;4476845;32;34061;-80
2023/06/22 07:55:19;;;;;;;;;;;;;;;30.35;43.35;99866.44;4476895;32;33612;-79
2023/06/22 07:57:51;;;;;;;;;;;;;;;30.53;43.32;99875.41;4476799;32;34660;-80
2023/06/22 08:00:20;;;;;;;;;;;;;;;30.57;42.10;99874.13;4482296;32;34597;-79
2023/06/22 08:02:49;;;;;;;;;;;;;;;30.81;41.58;99870.13;4477097;32;34992;-79
2023/06/22 08:05:18;;;;;;;;;;;;;;;30.99;41.69;99860.34;4476892;32;33182;-80
2023/06/22 08:08:02;;;;;;;;;;;;;;;31.04;42.15;99862.56;4468685;32;34796;-79
2023/06/22 08:10:32;;;;;;;;;;;;;;;30.78;43.63;99862.34;4461002;32;34277;-80
2023/06/22 08:13:00;;;;;;;;;;;;;;;31.25;42.02;99868.53;4466643;32;34669;-79
2023/06/22 08:15:29;;;;;;;;;;;;;;;31.45;40.20;99866.63;4460543;32;33082;-81
2023/06/22 08:17:59;;;;;;;;;;;;;;;31.48;41.32;99856.59;4470175;32;34406;-81
2023/06/22 08:20:29;;;;;;;;;;;;;;;31.62;41.74;99867.62;4476666;32;34224;-81
2023/06/22 08:23:05;;;;;;;;;;;;;;;31.62;41.23;99861.44;4473168;32;34138;-80
2023/06/22 08:25:35;;;;;;;;;;;;;;;31.62;40.85;99864.13;4463274;32;33281;-80
2023/06/22 08:28:04;;;;;;;;;;;;;;;31.66;40.85;99870.87;4460500;32;33681;-80
2023/06/22 08:30:33;;;;;;;;;;;;;;;31.65;40.84;99861.13;4461513;32;33807;-80
2023/06/22 08:33:01;;;;;;;;;;;;;;;31.59;41.06;99865.28;4461944;32;34469;-80
2023/06/22 08:35:30;;;;;;;;;;;;;;;31.74;41.16;99857.53;4479783;32;33605;-80
2023/06/22 08:37:59;;;;;;;;;;;;;;;31.80;40.34;99858.75;4478500;32;33789;-79
2023/06/22 08:40:29;;;;;;;;;;;;;;;31.83;41.49;99855.78;4467460;32;34209;-79
2023/06/22 08:42:59;;;;;;;;;;;;;;;31.91;40.43;99853.16;4462821;32;34805;-79
2023/06/22 08:45:28;;;;;;;;;;;;;;;32.21;41.72;99854.66;4468132;32;35276;-80
2023/06/22 08:47:58;;;;;;;;;;;;;;;32.23;41.17;99847.25;4462742;32;33897;-81
2023/06/22 08:50:27;;;;;;;;;;;;;;;32.30;41.46;99842.09;4462523;32;33834;-80
2023/06/22 08:52:56;;;;;;;;;;;;;;;32.34;42.03;99840.81;4462651;32;33782;-79
2023/06/22 08:55:26;;;;;;;;;;;;;;;32.52;39.79;99835.41;4464007;32;32644;-81
2023/06/22 08:57:56;;;;;;;;;;;;;;;32.37;40.22;99834.28;4467827;32;33743;-80
2023/06/22 09:00:26;;;;;;;;;;;;;;;32.36;40.54;99838.81;4462131;32;35096;-81
2023/06/22 09:02:58;;;;;;;;;;;;;;;32.14;39.16;99837.47;4473041;32;34143;-79
2023/06/22 09:05:27;;;;;;;;;;;;;;;31.99;40.57;99836.31;4478112;32;34237;-80
2023/06/22 09:07:58;;;;;;;;;;;;;;;32.73;40.94;99827.81;4475894;32;33822;-80
2023/06/22 09:10:26;;;;;;;;;;;;;;;32.86;38.63;99831.91;4463956;32;34637;-80
2023/06/22 09:12:56;;;;;;;;;;;;;;;32.73;40.01;99830.50;4462519;32;35136;-80
2023/06/22 09:15:26;;;;;;;;;;;;;;;32.64;38.81;99826.06;4463058;32;34071;-80
2023/06/22 09:17:56;;;;;;;;;;;;;;;32.88;39.84;99821.84;4466761;32;32675;-81
2023/06/22 09:20:26;;;;;;;;;;;;;;;32.63;39.76;99818.19;4467967;32;33750;-79
2023/06/22 09:22:55;;;;;;;;;;;;;;;32.88;39.20;99817.28;4462643;32;34929;-79
2023/06/22 09:25:24;;;;;;;;;;;;;;;33.27;38.38;99815.94;4447967;32;31884;-80
2023/06/22 09:27:53;;;;;;;;;;;;;;;33.07;39.82;99824.28;4462036;32;34782;-80
2023/06/22 09:30:22;;;;;;;;;;;;;;;33.33;38.28;99829.59;4467934;32;34798;-80
2023/06/22 09:32:52;;;;;;;;;;;;;;;33.06;38.13;99814.56;4462224;32;34141;-80
2023/06/22 09:35:21;;;;;;;;;;;;;;;33.34;38.76;99819.66;4462202;32;32485;-80
2023/06/22 09:37:49;;;;;;;;;;;;;;;33.31;37.77;99820.00;4463214;32;33459;-80
2023/06/22 09:40:18;;;;;;;;;;;;;;;33.41;37.61;99815.31;4467750;32;34863;-80
2023/06/22 09:42:47;;;;;;;;;;;;;;;33.51;38.97;99813.31;4462147;32;34931;-80
2023/06/22 09:45:15;;;;;;;;;;;;;;;33.46;39.25;99814.84;4462253;32;34032;-80
2023/06/22 09:47:44;;;;;;;;;;;;;;;33.36;39.36;99813.13;4465907;32;33928;-79
2023/06/22 09:50:17;;;;;;;;;;;;;;;33.68;38.26;99811.53;4477703;32;35677;-80
2023/06/22 09:52:50;;;;;;;;;;;;;;;33.78;38.48;99808.66;4483315;32;35238;-80
2023/06/22 09:55:19;;;;;;;;;;;;;;;33.63;37.83;99805.81;4478364;32;34247;-80
2023/06/22 09:57:48;;;;;;;;;;;;;;;33.69;37.92;99812.38;4477889;32;33620;-80
2023/06/22 10:00:17;;;;;;;;;;;;;;;33.96;36.90;99812.03;4477853;32;33852;-81
2023/06/22 10:02:47;;;;;;;;;;;;;;;34.13;36.87;99806.69;4483162;32;34220;-80
2023/06/22 10:05:17;;;;;;;;;;;;;;;34.21;38.08;99812.06;4478234;32;33565;-80
2023/06/22 10:07:46;;;;;;;;;;;;;;;33.91;37.19;99810.87;4471785;32;33392;-81
2023/06/22 10:10:15;;;;;;;;;;;;;;;33.88;37.47;99803.97;4462014;32;34977;-79
2023/06/22 10:12:46;;;;;;;;;;;;;;;33.89;37.90;99802.97;4461819;32;34354;-80
2023/06/22 10:15:16;;;;;;;;;;;;;;;34.10;37.43;99804.34;4466571;32;33193;-80
2023/06/22 10:17:45;;;;;;;;;;;;;;;33.87;36.45;99804.13;4461554;32;33690;-80
2023/06/22 10:20:14;;;;;;;;;;;;;;;33.88;36.42;99808.53;4462282;32;34197;-81
2023/06/22 10:22:44;;;;;;;;;;;;;;;34.41;38.68;99801.78;4461481;32;34131;-80
2023/06/22 10:25:14;;;;;;;;;;;;;;;34.40;35.74;99798.22;4467339;32;33269;-81
2023/06/22 10:27:44;;;;;;;;;;;;;;;34.07;36.07;99794.72;4465835;31;34909;-81
2023/06/22 10:30:12;;;;;;;;;;;;;;;34.70;35.34;99793.13;4477496;32;34119;-79
2023/06/22 10:32:42;;;;;;;;;;;;;;;34.64;35.71;99788.44;4477426;32;33715;-81
2023/06/22 10:35:15;;;;;;;;;;;;;;;34.62;35.50;99791.28;4464273;32;33324;-80
2023/06/22 10:37:47;;;;;;;;;;;;;;;34.70;35.23;99795.81;4467022;32;34780;-80
2023/06/22 10:40:18;;;;;;;;;;;;;;;35.04;37.02;99800.91;4475137;32;34356;-80
2023/06/22 10:42:47;;;;;;;;;;;;;;;34.93;34.27;99795.87;4477007;32;34159;-81
2023/06/22 10:45:16;;;;;;;;;;;;;;;35.01;34.40;99792.31;4474913;32;33660;-80
2023/06/22 10:47:45;;;;;;;;;;;;;;;35.05;34.63;99788.25;4482038;32;33959;-81
2023/06/22 10:50:14;;;;;;;;;;;;;;;35.28;33.98;99792.88;4476883;32;33878;-80
2023/06/22 10:52:43;;;;;;;;;;;;;;;35.54;34.57;99792.53;4476265;32;34392;-80
2023/06/22 10:55:13;;;;;;;;;;;;;;;35.68;33.93;99783.69;4477520;32;33567;-79
2023/06/22 10:57:44;;;;;;;;;;;;;;;36.09;34.82;99781.50;4477112;32;34981;-81
2023/06/22 11:00:13;;;;;;;;;;;;;;;36.22;32.96;99786.28;4483252;32;34325;-82
2023/06/22 11:02:42;;;;;;;;;;;;;;;36.28;32.77;99784.69;4477352;32;34290;-80
2023/06/22 11:05:11;;;;;;;;;;;;;;;36.34;32.64;99794.75;4477454;32;33363;-80
2023/06/22 11:07:42;;;;;;;;;;;;;;;36.29;32.34;99784.53;4475793;32;33279;-80
2023/06/22 11:10:13;;;;;;;;;;;;;;;36.23;32.18;99787.94;4481463;32;34508;-80
2023/06/22 11:12:42;;;;;;;;;;;;;;;36.18;31.68;99787.66;4475914;32;34628;-81
2023/06/22 11:15:11;;;;;;;;;;;;;;;36.10;32.33;99777.78;4476410;32;33267;-79
2023/06/22 11:17:39;;;;;;;;;;;;;;;36.22;31.95;99780.03;4476075;32;34724;-80
2023/06/22 11:20:10;;;;;;;;;;;;;;;36.02;32.30;99779.69;4479849;32;33761;-81
2023/06/22 11:22:43;;;;;;;;;;;;;;;35.96;32.90;99770.47;4482294;32;35174;-79
2023/06/22 11:25:13;;;;;;;;;;;;;;;35.65;32.87;99773.25;4476853;32;33716;-79
2023/06/22 11:27:41;;;;;;;;;;;;;;;35.77;32.73;99774.50;4476979;31;34210;-81
2023/06/22 11:30:10;;;;;;;;;;;;;;;35.73;33.15;99764.25;4477339;32;33914;-80
2023/06/22 11:32:39;;;;;;;;;;;;;;;36.24;33.26;99762.59;4482729;32;35200;-79
2023/06/22 11:35:08;;;;;;;;;;;;;;;36.50;32.43;99766.72;4477241;32;34287;-79
2023/06/22 11:37:37;;;;;;;;;;;;;;;36.68;31.58;99763.66;4476752;32;33618;-81
2023/06/22 11:40:08;;;;;;;;;;;;;;;36.86;32.11;99765.97;4462582;32;33210;-79
2023/06/22 11:42:39;;;;;;;;;;;;;;;37.11;30.63;99763.81;4482509;32;34394;-80
2023/06/22 11:45:08;;;;;;;;;;;;;;;36.99;31.23;99760.72;4481990;32;33274;-80
2023/06/22 11:47:37;;;;;;;;;;;;;;;36.70;30.80;99759.78;4476991;32;34689;-80
2023/06/22 11:50:06;;;;;;;;;;;;;;;37.08;30.76;99756.06;4478056;32;33940;-80
2023/06/22 11:52:36;;;;;;;;;;;;;;;37.05;30.31;99754.59;4476709;32;34417;-79
2023/06/22 11:55:06;;;;;;;;;;;;;;;37.53;29.25;99754.09;4482596;32;33961;-80
2023/06/22 11:57:36;;;;;;;;;;;;;;;36.91;30.36;99752.72;4476979;32;34302;-80
2023/06/22 12:00:15;;;;;;;;;;;;;;;37.70;29.71;99750.06;4476867;32;34272;-80
2023/06/22 12:02:45;;;;;;;;;;;;;;;37.25;30.42;99748.56;4476772;32;35177;-80
2023/06/22 12:05:13;;;;;;;;;;;;;;;37.35;29.13;99749.91;4476596;32;33192;-80
2023/06/22 12:07:42;;;;;;;;;;;;;;;37.84;28.94;99753.72;4476231;32;33304;-81
2023/06/22 12:10:11;;;;;;;;;;;;;;;37.87;26.83;99738.97;4461506;32;34920;-80
2023/06/22 12:12:39;;;;;;;;;;;;;;;37.79;28.34;99742.63;4460918;32;34466;-79
2023/06/22 12:15:13;;;;;;;;;;;;;;;37.97;27.54;99731.31;4460989;32;33941;-80
2023/06/22 12:17:42;;;;;;;;;;;;;;;38.10;27.69;99728.72;4466650;32;33510;-79
2023/06/22 12:20:11;;;;;;;;;;;;;;;37.95;27.80;99720.66;4463992;32;34642;-79
2023/06/22 12:22:41;;;;;;;;;;;;;;;38.34;28.51;99721.97;4471732;32;34053;-79
2023/06/22 12:25:10;;;;;;;;;;;;;;;38.32;27.44;99723.22;4476518;32;32585;-80
2023/06/22 12:27:39;;;;;;;;;;;;;;;38.41;27.49;99712.00;4479307;32;33627;-79
2023/06/22 12:30:09;;;;;;;;;;;;;;;38.43;28.70;99715.38;4481967;32;33741;-80
2023/06/22 12:32:39;;;;;;;;;;;;;;;38.72;29.48;99712.59;4476553;32;34485;-79
2023/06/22 12:35:13;;;;;;;;;;;;;;;38.83;29.36;99720.13;4463340;32;35290;-78
2023/06/22 12:37:43;;;;;;;;;;;;;;;38.52;27.69;99710.66;4461009;32;34086;-80
2023/06/22 12:40:12;;;;;;;;;;;;;;;38.83;28.23;99715.56;4466415;32;34828;-80
2023/06/22 12:42:41;;;;;;;;;;;;;;;38.78;28.10;99712.63;4460673;32;33826;-80
2023/06/22 12:45:10;;;;;;;;;;;;;;;38.99;28.32;99713.56;4460571;32;34013;-80
2023/06/22 12:47:41;;;;;;;;;;;;;;;39.40;28.22;99708.00;4461351;32;34594;-80
2023/06/22 12:50:09;;;;;;;;;;;;;;;39.59;26.67;99710.94;4463911;32;34012;-80
2023/06/22 12:52:40;;;;;;;;;;;;;;;39.69;27.45;99708.62;4468633;32;34565;-80
2023/06/22 12:55:10;;;;;;;;;;;;;;;39.99;27.97;99705.50;4476198;32;33085;-80
2023/06/22 12:57:38;;;;;;;;;;;;;;;40.14;26.52;99705.25;4476347;32;34193;-80
2023/06/22 13:00:10;;;;;;;;;;;;;;;39.66;26.31;99703.63;4475489;32;33693;-81